sensor_id;sensor_type;location;lat;lon;timestamp;P1;durP1;ratioP1;P2;durP2;ratioP2
75236;SDS011;63826;48.100;-1.670;2023-02-15T00:01:15;19.33;;;13.90;;
75236;SDS011;63826;48.100;-1.670;2023-02-15T00:03:41;20.45;;;15.05;;
75236;SDS011;63826;48.100;-1.670;2023-02-15T00:06:07;21.17;;;14.02;;
75236;SDS011;63826;48.100;-1.670;2023-02-15T00:08:33;21.25;;;14.88;;
75236;SDS011;63826;48.100;-1.670;2023-02-15T00:11:03;19.40;;;14.02;;
75236;SDS011;63826;48.100;-1.670;2023-02-15T00:13:29;19.93;;;14.23;;
75236;SDS011;63826;48.100;-1.670;2023-02-15T00:15:59;19.58;;;13.52;;
75236;SDS011;63826;48.100;-1.670;2023-02-15T00:18:25;21.25;;;14.93;;
75236;SDS011;63826;48.100;-1.670;2023-02-15T00:20:51;20.98;;;14.30;;
75236;SDS011;63826;48.100;-1.670;2023-02-15T00:23:17;20.30;;;14.02;;
75236;SDS011;63826;48.100;-1.670;2023-02-15T00:25:43;19.43;;;14.07;;
75236;SDS011;63826;48.100;-1.670;2023-02-15T00:28:09;20.13;;;14.48;;
75236;SDS011;63826;48.100;-1.670;2023-02-15T00:30:35;20.20;;;14.10;;
75236;SDS011;63826;48.100;-1.670;2023-02-15T00:33:01;20.20;;;13.68;;
75236;SDS011;63826;48.100;-1.670;2023-02-15T00:35:27;21.23;;;14.82;;
75236;SDS011;63826;48.100;-1.670;2023-02-15T00:37:53;20.30;;;14.43;;
75236;SDS011;63826;48.100;-1.670;2023-02-15T00:40:19;20.08;;;14.32;;
75236;SDS011;63826;48.100;-1.670;2023-02-15T00:42:45;19.65;;;14.02;;
75236;SDS011;63826;48.100;-1.670;2023-02-15T00:45:11;21.90;;;14.32;;
75236;SDS011;63826;48.100;-1.670;2023-02-15T00:47:37;20.38;;;13.73;;
75236;SDS011;63826;48.100;-1.670;2023-02-15T00:50:03;20.20;;;14.60;;
75236;SDS011;63826;48.100;-1.670;2023-02-15T00:52:30;19.75;;;14.10;;
75236;SDS011;63826;48.100;-1.670;2023-02-15T00:54:56;19.38;;;13.98;;
75236;SDS011;63826;48.100;-1.670;2023-02-15T00:57:22;20.33;;;14.77;;
75236;SDS011;63826;48.100;-1.670;2023-02-15T00:59:48;19.90;;;14.10;;
75236;SDS011;63826;48.100;-1.670;2023-02-15T01:02:14;19.63;;;13.67;;
75236;SDS011;63826;48.100;-1.670;2023-02-15T01:04:40;20.85;;;14.07;;
75236;SDS011;63826;48.100;-1.670;2023-02-15T01:07:06;19.05;;;14.23;;
75236;SDS011;63826;48.100;-1.670;2023-02-15T01:09:32;19.98;;;14.02;;
75236;SDS011;63826;48.100;-1.670;2023-02-15T01:11:58;17.05;;;13.40;;
75236;SDS011;63826;48.100;-1.670;2023-02-15T01:14:24;19.40;;;13.73;;
75236;SDS011;63826;48.100;-1.670;2023-02-15T01:16:50;18.23;;;13.25;;
75236;SDS011;63826;48.100;-1.670;2023-02-15T01:19:16;20.13;;;13.60;;
75236;SDS011;63826;48.100;-1.670;2023-02-15T01:21:42;18.42;;;13.15;;
75236;SDS011;63826;48.100;-1.670;2023-02-15T01:24:14;18.88;;;13.35;;
75236;SDS011;63826;48.100;-1.670;2023-02-15T01:26:40;18.07;;;13.33;;
75236;SDS011;63826;48.100;-1.670;2023-02-15T01:29:06;19.35;;;13.90;;
75236;SDS011;63826;48.100;-1.670;2023-02-15T01:31:32;20.08;;;12.88;;
75236;SDS011;63826;48.100;-1.670;2023-02-15T01:33:58;19.23;;;13.75;;
75236;SDS011;63826;48.100;-1.670;2023-02-15T01:36:24;18.02;;;13.05;;
75236;SDS011;63826;48.100;-1.670;2023-02-15T01:38:50;18.53;;;13.53;;
75236;SDS011;63826;48.100;-1.670;2023-02-15T01:41:16;18.55;;;13.05;;
75236;SDS011;63826;48.100;-1.670;2023-02-15T01:43:52;18.08;;;13.07;;
75236;SDS011;63826;48.100;-1.670;2023-02-15T01:46:19;18.52;;;12.93;;
75236;SDS011;63826;48.100;-1.670;2023-02-15T01:48:50;19.45;;;13.57;;
75236;SDS011;63826;48.100;-1.670;2023-02-15T01:51:17;19.03;;;13.40;;
75236;SDS011;63826;48.100;-1.670;2023-02-15T01:53:47;16.17;;;11.98;;
75236;SDS011;63826;48.100;-1.670;2023-02-15T01:56:22;17.27;;;12.30;;
75236;SDS011;63826;48.100;-1.670;2023-02-15T01:58:49;19.20;;;13.38;;
75236;SDS011;63826;48.100;-1.670;2023-02-15T02:01:17;18.13;;;12.65;;
75236;SDS011;63826;48.100;-1.670;2023-02-15T02:06:13;17.60;;;12.30;;
75236;SDS011;63826;48.100;-1.670;2023-02-15T02:08:39;19.00;;;13.10;;
75236;SDS011;63826;48.100;-1.670;2023-02-15T02:11:12;16.95;;;12.15;;
75236;SDS011;63826;48.100;-1.670;2023-02-15T02:13:39;18.65;;;13.15;;
75236;SDS011;63826;48.100;-1.670;2023-02-15T02:21:45;17.52;;;12.57;;
75236;SDS011;63826;48.100;-1.670;2023-02-15T02:24:29;19.27;;;12.30;;
75236;SDS011;63826;48.100;-1.670;2023-02-15T02:29:53;17.90;;;12.43;;
75236;SDS011;63826;48.100;-1.670;2023-02-15T02:34:56;17.85;;;12.05;;
75236;SDS011;63826;48.100;-1.670;2023-02-15T02:37:30;17.17;;;11.80;;
75236;SDS011;63826;48.100;-1.670;2023-02-15T02:40:41;17.98;;;12.48;;
75236;SDS011;63826;48.100;-1.670;2023-02-15T02:42:59;18.98;;;12.45;;
75236;SDS011;63826;48.100;-1.670;2023-02-15T02:45:39;18.25;;;12.15;;
75236;SDS011;63826;48.100;-1.670;2023-02-15T02:48:11;19.00;;;12.85;;
75236;SDS011;63826;48.100;-1.670;2023-02-15T02:50:38;15.82;;;11.88;;
75236;SDS011;63826;48.100;-1.670;2023-02-15T02:53:05;17.40;;;12.38;;
75236;SDS011;63826;48.100;-1.670;2023-02-15T02:55:31;16.55;;;11.77;;
75236;SDS011;63826;48.100;-1.670;2023-02-15T03:00:32;17.77;;;12.23;;
75236;SDS011;63826;48.100;-1.670;2023-02-15T03:03:04;17.70;;;11.65;;
75236;SDS011;63826;48.100;-1.670;2023-02-15T03:05:33;16.95;;;12.63;;
75236;SDS011;63826;48.100;-1.670;2023-02-15T03:07:59;18.38;;;12.93;;
75236;SDS011;63826;48.100;-1.670;2023-02-15T03:10:31;17.73;;;12.32;;
75236;SDS011;63826;48.100;-1.670;2023-02-15T03:12:58;16.85;;;11.80;;
75236;SDS011;63826;48.100;-1.670;2023-02-15T03:15:26;16.80;;;12.00;;
75236;SDS011;63826;48.100;-1.670;2023-02-15T03:18:13;17.48;;;11.95;;
75236;SDS011;63826;48.100;-1.670;2023-02-15T03:20:39;16.67;;;11.65;;
75236;SDS011;63826;48.100;-1.670;2023-02-15T03:23:16;17.23;;;12.02;;
75236;SDS011;63826;48.100;-1.670;2023-02-15T03:25:44;16.92;;;12.15;;
75236;SDS011;63826;48.100;-1.670;2023-02-15T03:28:16;16.63;;;11.70;;
75236;SDS011;63826;48.100;-1.670;2023-02-15T03:30:44;17.13;;;11.70;;
75236;SDS011;63826;48.100;-1.670;2023-02-15T03:33:11;15.90;;;11.63;;
75236;SDS011;63826;48.100;-1.670;2023-02-15T03:35:43;17.50;;;11.85;;
75236;SDS011;63826;48.100;-1.670;2023-02-15T03:38:11;17.02;;;12.25;;
75236;SDS011;63826;48.100;-1.670;2023-02-15T03:40:43;16.73;;;11.57;;
75236;SDS011;63826;48.100;-1.670;2023-02-15T03:46:05;16.23;;;11.30;;
75236;SDS011;63826;48.100;-1.670;2023-02-15T03:48:35;15.85;;;10.93;;
75236;SDS011;63826;48.100;-1.670;2023-02-15T03:51:06;16.88;;;12.10;;
75236;SDS011;63826;48.100;-1.670;2023-02-15T03:53:52;15.10;;;10.65;;
75236;SDS011;63826;48.100;-1.670;2023-02-15T03:56:19;16.75;;;11.93;;
75236;SDS011;63826;48.100;-1.670;2023-02-15T03:58:45;16.45;;;11.63;;
75236;SDS011;63826;48.100;-1.670;2023-02-15T04:01:37;15.95;;;11.02;;
75236;SDS011;63826;48.100;-1.670;2023-02-15T04:04:22;18.35;;;11.45;;
75236;SDS011;63826;48.100;-1.670;2023-02-15T04:06:49;16.02;;;11.25;;
75236;SDS011;63826;48.100;-1.670;2023-02-15T04:09:15;16.13;;;11.50;;
75236;SDS011;63826;48.100;-1.670;2023-02-15T04:11:59;15.48;;;10.65;;
75236;SDS011;63826;48.100;-1.670;2023-02-15T04:14:25;15.32;;;10.60;;
75236;SDS011;63826;48.100;-1.670;2023-02-15T04:17:10;16.70;;;11.10;;
75236;SDS011;63826;48.100;-1.670;2023-02-15T04:19:36;15.30;;;11.27;;
75236;SDS011;63826;48.100;-1.670;2023-02-15T04:22:21;14.93;;;10.40;;
75236;SDS011;63826;48.100;-1.670;2023-02-15T04:25:05;15.38;;;10.90;;
75236;SDS011;63826;48.100;-1.670;2023-02-15T04:27:35;15.65;;;11.00;;
75236;SDS011;63826;48.100;-1.670;2023-02-15T04:30:01;15.02;;;10.52;;
75236;SDS011;63826;48.100;-1.670;2023-02-15T04:32:27;15.65;;;10.23;;
75236;SDS011;63826;48.100;-1.670;2023-02-15T04:34:53;15.97;;;10.50;;
75236;SDS011;63826;48.100;-1.670;2023-02-15T04:37:19;15.95;;;10.57;;
75236;SDS011;63826;48.100;-1.670;2023-02-15T04:39:45;17.52;;;10.45;;
75236;SDS011;63826;48.100;-1.670;2023-02-15T04:42:11;16.63;;;10.52;;
75236;SDS011;63826;48.100;-1.670;2023-02-15T04:44:37;14.93;;;10.10;;
75236;SDS011;63826;48.100;-1.670;2023-02-15T04:47:03;14.73;;;10.65;;
75236;SDS011;63826;48.100;-1.670;2023-02-15T04:49:29;15.52;;;10.48;;
75236;SDS011;63826;48.100;-1.670;2023-02-15T04:51:55;16.63;;;10.18;;
75236;SDS011;63826;48.100;-1.670;2023-02-15T04:54:21;17.02;;;11.02;;
75236;SDS011;63826;48.100;-1.670;2023-02-15T04:56:47;16.73;;;10.27;;
75236;SDS011;63826;48.100;-1.670;2023-02-15T04:59:13;16.67;;;11.27;;
75236;SDS011;63826;48.100;-1.670;2023-02-15T05:01:39;17.55;;;10.77;;
75236;SDS011;63826;48.100;-1.670;2023-02-15T05:04:05;15.02;;;10.50;;
75236;SDS011;63826;48.100;-1.670;2023-02-15T05:06:31;14.48;;;9.73;;
75236;SDS011;63826;48.100;-1.670;2023-02-15T05:08:57;14.57;;;9.93;;
75236;SDS011;63826;48.100;-1.670;2023-02-15T05:11:24;16.25;;;10.35;;
75236;SDS011;63826;48.100;-1.670;2023-02-15T05:13:50;14.10;;;10.07;;
75236;SDS011;63826;48.100;-1.670;2023-02-15T05:16:16;15.23;;;10.32;;
75236;SDS011;63826;48.100;-1.670;2023-02-15T05:18:42;15.07;;;9.95;;
75236;SDS011;63826;48.100;-1.670;2023-02-15T05:21:08;15.15;;;10.60;;
75236;SDS011;63826;48.100;-1.670;2023-02-15T05:23:34;14.40;;;9.63;;
75236;SDS011;63826;48.100;-1.670;2023-02-15T05:26:01;15.75;;;10.27;;
75236;SDS011;63826;48.100;-1.670;2023-02-15T05:28:45;14.45;;;9.52;;
75236;SDS011;63826;48.100;-1.670;2023-02-15T05:31:13;14.63;;;9.30;;
75236;SDS011;63826;48.100;-1.670;2023-02-15T05:33:39;14.95;;;9.20;;
75236;SDS011;63826;48.100;-1.670;2023-02-15T05:36:05;15.00;;;9.88;;
75236;SDS011;63826;48.100;-1.670;2023-02-15T05:38:31;14.75;;;9.68;;
75236;SDS011;63826;48.100;-1.670;2023-02-15T05:40:58;14.82;;;10.05;;
75236;SDS011;63826;48.100;-1.670;2023-02-15T05:43:24;14.43;;;9.23;;
75236;SDS011;63826;48.100;-1.670;2023-02-15T05:45:51;15.38;;;9.98;;
75236;SDS011;63826;48.100;-1.670;2023-02-15T05:48:18;14.15;;;9.40;;
75236;SDS011;63826;48.100;-1.670;2023-02-15T05:50:44;13.93;;;9.07;;
75236;SDS011;63826;48.100;-1.670;2023-02-15T05:53:11;14.63;;;9.50;;
75236;SDS011;63826;48.100;-1.670;2023-02-15T05:55:37;14.43;;;9.63;;
75236;SDS011;63826;48.100;-1.670;2023-02-15T05:58:04;14.27;;;9.70;;
75236;SDS011;63826;48.100;-1.670;2023-02-15T06:00:30;13.30;;;8.98;;
75236;SDS011;63826;48.100;-1.670;2023-02-15T06:02:56;15.20;;;9.68;;
75236;SDS011;63826;48.100;-1.670;2023-02-15T06:05:22;14.77;;;9.50;;
75236;SDS011;63826;48.100;-1.670;2023-02-15T06:07:48;16.08;;;9.45;;
75236;SDS011;63826;48.100;-1.670;2023-02-15T06:10:16;14.68;;;9.68;;
75236;SDS011;63826;48.100;-1.670;2023-02-15T06:12:43;14.60;;;9.97;;
75236;SDS011;63826;48.100;-1.670;2023-02-15T06:15:10;14.73;;;9.23;;
75236;SDS011;63826;48.100;-1.670;2023-02-15T06:17:36;14.70;;;9.40;;
75236;SDS011;63826;48.100;-1.670;2023-02-15T06:20:02;13.93;;;8.98;;
75236;SDS011;63826;48.100;-1.670;2023-02-15T06:22:28;13.65;;;9.27;;
75236;SDS011;63826;48.100;-1.670;2023-02-15T06:24:54;17.75;;;9.50;;
75236;SDS011;63826;48.100;-1.670;2023-02-15T06:27:20;14.02;;;9.15;;
75236;SDS011;63826;48.100;-1.670;2023-02-15T06:29:46;13.45;;;9.35;;
75236;SDS011;63826;48.100;-1.670;2023-02-15T06:32:12;13.18;;;9.02;;
75236;SDS011;63826;48.100;-1.670;2023-02-15T06:34:38;14.05;;;9.30;;
75236;SDS011;63826;48.100;-1.670;2023-02-15T06:37:04;14.18;;;9.30;;
75236;SDS011;63826;48.100;-1.670;2023-02-15T06:39:32;13.15;;;9.23;;
75236;SDS011;63826;48.100;-1.670;2023-02-15T06:41:58;13.93;;;9.25;;
75236;SDS011;63826;48.100;-1.670;2023-02-15T06:44:25;15.85;;;9.70;;
75236;SDS011;63826;48.100;-1.670;2023-02-15T06:46:51;13.50;;;9.32;;
75236;SDS011;63826;48.100;-1.670;2023-02-15T06:49:17;13.90;;;9.95;;
75236;SDS011;63826;48.100;-1.670;2023-02-15T06:51:43;15.45;;;10.25;;
75236;SDS011;63826;48.100;-1.670;2023-02-15T06:54:09;15.30;;;10.20;;
75236;SDS011;63826;48.100;-1.670;2023-02-15T06:56:35;15.10;;;10.07;;
75236;SDS011;63826;48.100;-1.670;2023-02-15T06:59:01;14.30;;;9.95;;
75236;SDS011;63826;48.100;-1.670;2023-02-15T07:01:27;14.13;;;9.48;;
75236;SDS011;63826;48.100;-1.670;2023-02-15T07:03:53;14.05;;;9.80;;
75236;SDS011;63826;48.100;-1.670;2023-02-15T07:06:19;14.10;;;8.88;;
75236;SDS011;63826;48.100;-1.670;2023-02-15T07:08:45;13.23;;;9.35;;
75236;SDS011;63826;48.100;-1.670;2023-02-15T07:11:11;14.55;;;9.43;;
75236;SDS011;63826;48.100;-1.670;2023-02-15T07:13:56;14.15;;;9.60;;
75236;SDS011;63826;48.100;-1.670;2023-02-15T07:16:22;15.15;;;9.85;;
75236;SDS011;63826;48.100;-1.670;2023-02-15T07:18:48;14.48;;;9.77;;
75236;SDS011;63826;48.100;-1.670;2023-02-15T07:21:14;13.90;;;9.25;;
75236;SDS011;63826;48.100;-1.670;2023-02-15T07:23:40;14.98;;;10.07;;
75236;SDS011;63826;48.100;-1.670;2023-02-15T07:26:06;15.10;;;10.27;;
75236;SDS011;63826;48.100;-1.670;2023-02-15T07:28:33;14.50;;;9.73;;
75236;SDS011;63826;48.100;-1.670;2023-02-15T07:31:03;14.30;;;9.38;;
75236;SDS011;63826;48.100;-1.670;2023-02-15T07:33:30;14.25;;;9.68;;
75236;SDS011;63826;48.100;-1.670;2023-02-15T07:35:57;14.43;;;9.23;;
75236;SDS011;63826;48.100;-1.670;2023-02-15T07:38:24;14.98;;;9.80;;
75236;SDS011;63826;48.100;-1.670;2023-02-15T07:40:51;13.93;;;9.57;;
75236;SDS011;63826;48.100;-1.670;2023-02-15T07:43:17;13.52;;;9.60;;
75236;SDS011;63826;48.100;-1.670;2023-02-15T07:45:43;14.30;;;9.18;;
75236;SDS011;63826;48.100;-1.670;2023-02-15T07:48:09;13.40;;;8.98;;
75236;SDS011;63826;48.100;-1.670;2023-02-15T07:50:35;13.83;;;9.23;;
75236;SDS011;63826;48.100;-1.670;2023-02-15T07:53:02;13.60;;;9.38;;
75236;SDS011;63826;48.100;-1.670;2023-02-15T07:55:28;13.68;;;8.90;;
75236;SDS011;63826;48.100;-1.670;2023-02-15T07:57:54;15.60;;;9.55;;
75236;SDS011;63826;48.100;-1.670;2023-02-15T08:00:21;13.73;;;9.27;;
75236;SDS011;63826;48.100;-1.670;2023-02-15T08:02:53;13.23;;;8.77;;
75236;SDS011;63826;48.100;-1.670;2023-02-15T08:05:41;13.45;;;9.07;;
75236;SDS011;63826;48.100;-1.670;2023-02-15T08:08:08;13.23;;;9.35;;
75236;SDS011;63826;48.100;-1.670;2023-02-15T08:10:56;14.32;;;9.00;;
75236;SDS011;63826;48.100;-1.670;2023-02-15T08:13:42;14.35;;;9.27;;
75236;SDS011;63826;48.100;-1.670;2023-02-15T08:16:18;12.95;;;8.88;;
75236;SDS011;63826;48.100;-1.670;2023-02-15T08:18:44;14.52;;;9.00;;
75236;SDS011;63826;48.100;-1.670;2023-02-15T08:21:10;13.25;;;9.00;;
75236;SDS011;63826;48.100;-1.670;2023-02-15T08:23:36;13.98;;;8.65;;
75236;SDS011;63826;48.100;-1.670;2023-02-15T08:26:02;14.57;;;9.23;;
75236;SDS011;63826;48.100;-1.670;2023-02-15T08:28:29;12.90;;;8.98;;
75236;SDS011;63826;48.100;-1.670;2023-02-15T08:30:56;15.10;;;9.50;;
75236;SDS011;63826;48.100;-1.670;2023-02-15T08:33:29;13.85;;;8.90;;
75236;SDS011;63826;48.100;-1.670;2023-02-15T08:35:55;13.40;;;8.77;;
75236;SDS011;63826;48.100;-1.670;2023-02-15T08:38:21;15.00;;;8.88;;
75236;SDS011;63826;48.100;-1.670;2023-02-15T08:40:47;15.27;;;9.43;;
75236;SDS011;63826;48.100;-1.670;2023-02-15T08:43:13;13.30;;;8.88;;
75236;SDS011;63826;48.100;-1.670;2023-02-15T08:45:39;21.00;;;9.10;;
75236;SDS011;63826;48.100;-1.670;2023-02-15T08:48:05;15.38;;;8.98;;
75236;SDS011;63826;48.100;-1.670;2023-02-15T08:50:31;18.77;;;9.30;;
75236;SDS011;63826;48.100;-1.670;2023-02-15T08:52:57;18.60;;;8.70;;
75236;SDS011;63826;48.100;-1.670;2023-02-15T08:55:23;12.68;;;7.85;;
75236;SDS011;63826;48.100;-1.670;2023-02-15T08:57:49;12.32;;;8.27;;
75236;SDS011;63826;48.100;-1.670;2023-02-15T09:00:15;14.75;;;8.75;;
75236;SDS011;63826;48.100;-1.670;2023-02-15T09:02:42;13.38;;;8.25;;
75236;SDS011;63826;48.100;-1.670;2023-02-15T09:05:08;12.83;;;8.47;;
75236;SDS011;63826;48.100;-1.670;2023-02-15T09:07:34;13.80;;;8.38;;
75236;SDS011;63826;48.100;-1.670;2023-02-15T09:10:00;13.85;;;8.30;;
75236;SDS011;63826;48.100;-1.670;2023-02-15T09:12:26;13.25;;;8.43;;
75236;SDS011;63826;48.100;-1.670;2023-02-15T09:14:52;14.45;;;8.07;;
75236;SDS011;63826;48.100;-1.670;2023-02-15T09:17:18;12.83;;;8.03;;
75236;SDS011;63826;48.100;-1.670;2023-02-15T09:19:44;11.80;;;8.00;;
75236;SDS011;63826;48.100;-1.670;2023-02-15T09:22:10;13.10;;;8.23;;
75236;SDS011;63826;48.100;-1.670;2023-02-15T09:24:36;12.68;;;7.97;;
75236;SDS011;63826;48.100;-1.670;2023-02-15T09:27:02;12.02;;;7.60;;
75236;SDS011;63826;48.100;-1.670;2023-02-15T09:29:28;12.15;;;7.07;;
75236;SDS011;63826;48.100;-1.670;2023-02-15T09:31:54;14.68;;;8.10;;
75236;SDS011;63826;48.100;-1.670;2023-02-15T09:34:20;17.60;;;8.25;;
75236;SDS011;63826;48.100;-1.670;2023-02-15T09:36:47;12.18;;;7.50;;
75236;SDS011;63826;48.100;-1.670;2023-02-15T09:47:03;10.63;;;7.05;;
75236;SDS011;63826;48.100;-1.670;2023-02-15T10:02:45;11.07;;;6.78;;
75236;SDS011;63826;48.100;-1.670;2023-02-15T10:08:06;10.93;;;6.60;;
75236;SDS011;63826;48.100;-1.670;2023-02-15T10:10:39;11.63;;;7.20;;
75236;SDS011;63826;48.100;-1.670;2023-02-15T10:23:12;18.52;;;10.18;;
75236;SDS011;63826;48.100;-1.670;2023-02-15T10:28:11;15.85;;;8.65;;
75236;SDS011;63826;48.100;-1.670;2023-02-15T10:30:43;15.65;;;8.20;;
75236;SDS011;63826;48.100;-1.670;2023-02-15T10:33:59;22.25;;;9.07;;
75236;SDS011;63826;48.100;-1.670;2023-02-15T10:38:46;14.32;;;7.63;;
75236;SDS011;63826;48.100;-1.670;2023-02-15T10:57:02;11.83;;;6.73;;
75236;SDS011;63826;48.100;-1.670;2023-02-15T11:02:20;13.27;;;7.40;;
75236;SDS011;63826;48.100;-1.670;2023-02-15T11:05:14;12.75;;;7.30;;
75236;SDS011;63826;48.100;-1.670;2023-02-15T11:07:43;11.20;;;6.97;;
75236;SDS011;63826;48.100;-1.670;2023-02-15T11:12:41;13.25;;;6.80;;
75236;SDS011;63826;48.100;-1.670;2023-02-15T11:17:41;11.15;;;6.78;;
75236;SDS011;63826;48.100;-1.670;2023-02-15T11:22:46;11.63;;;6.63;;
75236;SDS011;63826;48.100;-1.670;2023-02-15T11:25:15;11.15;;;6.32;;
75236;SDS011;63826;48.100;-1.670;2023-02-15T11:27:42;10.93;;;6.43;;
75236;SDS011;63826;48.100;-1.670;2023-02-15T11:30:10;10.50;;;6.00;;
75236;SDS011;63826;48.100;-1.670;2023-02-15T11:32:45;11.48;;;7.00;;
75236;SDS011;63826;48.100;-1.670;2023-02-15T11:37:48;10.80;;;5.95;;
75236;SDS011;63826;48.100;-1.670;2023-02-15T11:40:29;11.77;;;6.50;;
75236;SDS011;63826;48.100;-1.670;2023-02-15T11:42:56;11.77;;;6.80;;
75236;SDS011;63826;48.100;-1.670;2023-02-15T11:45:30;12.15;;;6.72;;
75236;SDS011;63826;48.100;-1.670;2023-02-15T11:47:56;10.43;;;6.72;;
75236;SDS011;63826;48.100;-1.670;2023-02-15T11:50:23;11.25;;;7.10;;
75236;SDS011;63826;48.100;-1.670;2023-02-15T11:52:51;9.93;;;6.78;;
75236;SDS011;63826;48.100;-1.670;2023-02-15T11:55:19;11.00;;;6.80;;
75236;SDS011;63826;48.100;-1.670;2023-02-15T11:57:48;11.65;;;6.63;;
75236;SDS011;63826;48.100;-1.670;2023-02-15T12:02:50;11.02;;;6.32;;
75236;SDS011;63826;48.100;-1.670;2023-02-15T12:05:18;12.02;;;6.40;;
75236;SDS011;63826;48.100;-1.670;2023-02-15T12:08:31;16.58;;;6.50;;
75236;SDS011;63826;48.100;-1.670;2023-02-15T12:10:38;12.10;;;6.78;;
75236;SDS011;63826;48.100;-1.670;2023-02-15T12:13:11;10.35;;;6.10;;
75236;SDS011;63826;48.100;-1.670;2023-02-15T12:15:38;11.85;;;6.32;;
75236;SDS011;63826;48.100;-1.670;2023-02-15T12:18:15;10.75;;;6.22;;
75236;SDS011;63826;48.100;-1.670;2023-02-15T12:20:42;11.82;;;5.93;;
75236;SDS011;63826;48.100;-1.670;2023-02-15T12:23:12;12.45;;;5.80;;
75236;SDS011;63826;48.100;-1.670;2023-02-15T12:25:41;15.95;;;6.70;;
75236;SDS011;63826;48.100;-1.670;2023-02-15T12:28:22;14.43;;;6.75;;
75236;SDS011;63826;48.100;-1.670;2023-02-15T12:30:49;18.20;;;6.25;;
75236;SDS011;63826;48.100;-1.670;2023-02-15T12:35:41;13.13;;;6.43;;
75236;SDS011;63826;48.100;-1.670;2023-02-15T12:40:35;12.02;;;6.22;;
75236;SDS011;63826;48.100;-1.670;2023-02-15T12:43:01;12.75;;;6.30;;
75236;SDS011;63826;48.100;-1.670;2023-02-15T12:45:33;13.77;;;6.32;;
75236;SDS011;63826;48.100;-1.670;2023-02-15T12:50:39;10.80;;;5.50;;
75236;SDS011;63826;48.100;-1.670;2023-02-15T12:55:51;11.05;;;5.70;;
75236;SDS011;63826;48.100;-1.670;2023-02-15T12:58:22;13.07;;;5.70;;
75236;SDS011;63826;48.100;-1.670;2023-02-15T13:03:35;9.65;;;5.88;;
75236;SDS011;63826;48.100;-1.670;2023-02-15T13:06:01;11.23;;;5.25;;
75236;SDS011;63826;48.100;-1.670;2023-02-15T13:08:33;9.40;;;5.55;;
75236;SDS011;63826;48.100;-1.670;2023-02-15T13:11:00;9.55;;;5.78;;
75236;SDS011;63826;48.100;-1.670;2023-02-15T13:13:31;9.70;;;5.20;;
75236;SDS011;63826;48.100;-1.670;2023-02-15T13:15:59;10.85;;;5.70;;
75236;SDS011;63826;48.100;-1.670;2023-02-15T13:18:34;9.52;;;5.53;;
75236;SDS011;63826;48.100;-1.670;2023-02-15T13:21:04;12.18;;;6.03;;
75236;SDS011;63826;48.100;-1.670;2023-02-15T13:23:30;9.65;;;5.75;;
75236;SDS011;63826;48.100;-1.670;2023-02-15T13:25:58;10.15;;;5.70;;
75236;SDS011;63826;48.100;-1.670;2023-02-15T13:28:44;8.65;;;5.55;;
75236;SDS011;63826;48.100;-1.670;2023-02-15T13:31:15;9.25;;;5.38;;
75236;SDS011;63826;48.100;-1.670;2023-02-15T13:33:44;10.93;;;5.65;;
75236;SDS011;63826;48.100;-1.670;2023-02-15T13:36:23;9.32;;;5.55;;
75236;SDS011;63826;48.100;-1.670;2023-02-15T13:39:00;10.27;;;5.68;;
75236;SDS011;63826;48.100;-1.670;2023-02-15T13:41:30;9.30;;;5.80;;
75236;SDS011;63826;48.100;-1.670;2023-02-15T13:43:59;9.68;;;5.68;;
75236;SDS011;63826;48.100;-1.670;2023-02-15T14:15:18;10.30;;;5.97;;
75236;SDS011;63826;48.100;-1.670;2023-02-15T14:17:48;10.55;;;5.60;;
75236;SDS011;63826;48.100;-1.670;2023-02-15T14:20:36;10.68;;;5.60;;
75236;SDS011;63826;48.100;-1.670;2023-02-15T14:25:42;10.82;;;5.40;;
75236;SDS011;63826;48.100;-1.670;2023-02-15T14:28:17;9.48;;;5.20;;
75236;SDS011;63826;48.100;-1.670;2023-02-15T14:30:48;9.75;;;5.35;;
75236;SDS011;63826;48.100;-1.670;2023-02-15T14:36:19;10.02;;;5.20;;
75236;SDS011;63826;48.100;-1.670;2023-02-15T14:41:37;9.65;;;5.40;;
75236;SDS011;63826;48.100;-1.670;2023-02-15T14:44:27;10.98;;;5.35;;
75236;SDS011;63826;48.100;-1.670;2023-02-15T14:46:56;18.20;;;6.03;;
75236;SDS011;63826;48.100;-1.670;2023-02-15T14:49:25;14.52;;;5.40;;
75236;SDS011;63826;48.100;-1.670;2023-02-15T14:51:55;14.70;;;5.53;;
75236;SDS011;63826;48.100;-1.670;2023-02-15T14:59:27;11.73;;;5.53;;
75236;SDS011;63826;48.100;-1.670;2023-02-15T15:04:34;12.38;;;5.32;;
75236;SDS011;63826;48.100;-1.670;2023-02-15T15:09:33;15.63;;;5.13;;
75236;SDS011;63826;48.100;-1.670;2023-02-15T15:14:46;11.82;;;5.13;;
75236;SDS011;63826;48.100;-1.670;2023-02-15T15:17:13;10.15;;;5.30;;
75236;SDS011;63826;48.100;-1.670;2023-02-15T15:22:29;15.05;;;5.20;;
75236;SDS011;63826;48.100;-1.670;2023-02-15T15:24:58;12.93;;;4.90;;
75236;SDS011;63826;48.100;-1.670;2023-02-15T15:48:36;11.65;;;5.78;;
75236;SDS011;63826;48.100;-1.670;2023-02-15T15:51:10;11.05;;;5.32;;
75236;SDS011;63826;48.100;-1.670;2023-02-15T15:53:40;10.60;;;4.90;;
75236;SDS011;63826;48.100;-1.670;2023-02-15T15:56:09;10.23;;;5.03;;
75236;SDS011;63826;48.100;-1.670;2023-02-15T15:58:40;11.93;;;5.20;;
75236;SDS011;63826;48.100;-1.670;2023-02-15T16:01:08;9.35;;;5.28;;
75236;SDS011;63826;48.100;-1.670;2023-02-15T16:03:36;8.60;;;4.72;;
75236;SDS011;63826;48.100;-1.670;2023-02-15T16:06:02;9.10;;;5.50;;
75236;SDS011;63826;48.100;-1.670;2023-02-15T16:08:30;8.80;;;5.07;;
75236;SDS011;63826;48.100;-1.670;2023-02-15T16:10:56;9.32;;;5.15;;
75236;SDS011;63826;48.100;-1.670;2023-02-15T16:13:22;9.35;;;5.10;;
75236;SDS011;63826;48.100;-1.670;2023-02-15T16:15:52;10.65;;;5.28;;
75236;SDS011;63826;48.100;-1.670;2023-02-15T16:18:21;10.60;;;4.97;;
75236;SDS011;63826;48.100;-1.670;2023-02-15T16:20:49;9.65;;;5.38;;
75236;SDS011;63826;48.100;-1.670;2023-02-15T16:25:54;8.93;;;5.25;;
75236;SDS011;63826;48.100;-1.670;2023-02-15T16:28:22;10.45;;;5.40;;
75236;SDS011;63826;48.100;-1.670;2023-02-15T16:30:54;9.05;;;5.32;;
75236;SDS011;63826;48.100;-1.670;2023-02-15T16:33:33;8.77;;;5.60;;
75236;SDS011;63826;48.100;-1.670;2023-02-15T16:36:00;9.20;;;5.70;;
75236;SDS011;63826;48.100;-1.670;2023-02-15T16:41:27;8.68;;;5.43;;
75236;SDS011;63826;48.100;-1.670;2023-02-15T16:43:54;9.50;;;5.68;;
75236;SDS011;63826;48.100;-1.670;2023-02-15T16:48:50;10.00;;;5.55;;
75236;SDS011;63826;48.100;-1.670;2023-02-15T16:51:18;8.77;;;5.60;;
75236;SDS011;63826;48.100;-1.670;2023-02-15T16:53:46;8.68;;;5.18;;
75236;SDS011;63826;48.100;-1.670;2023-02-15T16:56:15;8.30;;;4.97;;
75236;SDS011;63826;48.100;-1.670;2023-02-15T16:58:49;9.73;;;5.10;;
75236;SDS011;63826;48.100;-1.670;2023-02-15T17:01:15;10.18;;;5.55;;
75236;SDS011;63826;48.100;-1.670;2023-02-15T17:03:42;10.20;;;5.35;;
75236;SDS011;63826;48.100;-1.670;2023-02-15T17:06:21;8.90;;;5.60;;
75236;SDS011;63826;48.100;-1.670;2023-02-15T17:08:48;9.15;;;5.40;;
75236;SDS011;63826;48.100;-1.670;2023-02-15T17:16:27;9.25;;;5.43;;
75236;SDS011;63826;48.100;-1.670;2023-02-15T17:18:54;8.70;;;5.10;;
75236;SDS011;63826;48.100;-1.670;2023-02-15T17:21:33;9.80;;;5.97;;
75236;SDS011;63826;48.100;-1.670;2023-02-15T17:24:00;9.10;;;5.28;;
75236;SDS011;63826;48.100;-1.670;2023-02-15T17:26:35;11.95;;;6.32;;
75236;SDS011;63826;48.100;-1.670;2023-02-15T17:31:37;10.10;;;5.60;;
75236;SDS011;63826;48.100;-1.670;2023-02-15T17:34:03;9.23;;;5.70;;
75236;SDS011;63826;48.100;-1.670;2023-02-15T17:36:30;9.63;;;5.80;;
75236;SDS011;63826;48.100;-1.670;2023-02-15T17:41:26;10.15;;;5.95;;
75236;SDS011;63826;48.100;-1.670;2023-02-15T17:43:52;9.90;;;6.25;;